sensor_id;sensor_type;location;lat;lon;timestamp;P1;durP1;ratioP1;P2;durP2;ratioP2
59978;SDS011;45839;44.882;20.650;2023-02-18T00:01:17;78.53;;;51.30;;
59978;SDS011;45839;44.882;20.650;2023-02-18T00:03:44;88.47;;;56.30;;
59978;SDS011;45839;44.882;20.650;2023-02-18T00:08:37;97.78;;;61.03;;
59978;SDS011;45839;44.882;20.650;2023-02-18T00:11:06;99.15;;;63.67;;
59978;SDS011;45839;44.882;20.650;2023-02-18T00:13:33;102.57;;;64.50;;
59978;SDS011;45839;44.882;20.650;2023-02-18T00:15:59;103.53;;;67.70;;
59978;SDS011;45839;44.882;20.650;2023-02-18T00:18:25;99.13;;;64.05;;
59978;SDS011;45839;44.882;20.650;2023-02-18T00:20:52;94.38;;;60.08;;
59978;SDS011;45839;44.882;20.650;2023-02-18T00:23:18;99.18;;;65.18;;
59978;SDS011;45839;44.882;20.650;2023-02-18T00:25:44;96.68;;;63.97;;
59978;SDS011;45839;44.882;20.650;2023-02-18T00:28:10;94.53;;;62.80;;
59978;SDS011;45839;44.882;20.650;2023-02-18T00:30:39;89.05;;;61.30;;
59978;SDS011;45839;44.882;20.650;2023-02-18T00:33:05;93.10;;;62.58;;
59978;SDS011;45839;44.882;20.650;2023-02-18T00:35:31;96.93;;;63.92;;
59978;SDS011;45839;44.882;20.650;2023-02-18T00:37:57;102.10;;;63.00;;
59978;SDS011;45839;44.882;20.650;2023-02-18T00:40:23;95.05;;;63.28;;
59978;SDS011;45839;44.882;20.650;2023-02-18T00:42:49;93.60;;;61.05;;
59978;SDS011;45839;44.882;20.650;2023-02-18T00:45:15;99.65;;;63.85;;
59978;SDS011;45839;44.882;20.650;2023-02-18T00:47:41;97.57;;;61.80;;
59978;SDS011;45839;44.882;20.650;2023-02-18T00:50:08;96.90;;;60.17;;
59978;SDS011;45839;44.882;20.650;2023-02-18T00:52:34;100.90;;;66.60;;
59978;SDS011;45839;44.882;20.650;2023-02-18T00:55:00;94.03;;;64.18;;
59978;SDS011;45839;44.882;20.650;2023-02-18T00:57:26;105.00;;;65.10;;
59978;SDS011;45839;44.882;20.650;2023-02-18T00:59:52;105.47;;;67.85;;
59978;SDS011;45839;44.882;20.650;2023-02-18T01:02:18;105.28;;;65.72;;
59978;SDS011;45839;44.882;20.650;2023-02-18T01:04:44;102.32;;;67.82;;
59978;SDS011;45839;44.882;20.650;2023-02-18T01:07:10;96.45;;;58.83;;
59978;SDS011;45839;44.882;20.650;2023-02-18T01:09:37;90.88;;;59.67;;
59978;SDS011;45839;44.882;20.650;2023-02-18T01:12:03;93.18;;;58.30;;
59978;SDS011;45839;44.882;20.650;2023-02-18T01:14:29;82.57;;;55.35;;
59978;SDS011;45839;44.882;20.650;2023-02-18T01:16:55;83.65;;;53.53;;
59978;SDS011;45839;44.882;20.650;2023-02-18T01:19:21;78.63;;;52.90;;
59978;SDS011;45839;44.882;20.650;2023-02-18T01:21:47;85.45;;;54.35;;
59978;SDS011;45839;44.882;20.650;2023-02-18T01:24:13;85.88;;;54.15;;
59978;SDS011;45839;44.882;20.650;2023-02-18T01:26:39;83.63;;;52.63;;
59978;SDS011;45839;44.882;20.650;2023-02-18T01:29:05;85.13;;;54.45;;
59978;SDS011;45839;44.882;20.650;2023-02-18T01:31:31;86.13;;;54.25;;
59978;SDS011;45839;44.882;20.650;2023-02-18T01:33:57;90.40;;;55.58;;
59978;SDS011;45839;44.882;20.650;2023-02-18T01:36:23;94.75;;;57.83;;
59978;SDS011;45839;44.882;20.650;2023-02-18T01:38:49;93.53;;;58.13;;
59978;SDS011;45839;44.882;20.650;2023-02-18T01:41:15;90.03;;;58.17;;
59978;SDS011;45839;44.882;20.650;2023-02-18T01:43:41;85.15;;;55.70;;
59978;SDS011;45839;44.882;20.650;2023-02-18T01:53:36;78.70;;;53.08;;
59978;SDS011;45839;44.882;20.650;2023-02-18T01:56:04;86.18;;;54.72;;
59978;SDS011;45839;44.882;20.650;2023-02-18T01:58:31;83.32;;;53.80;;
59978;SDS011;45839;44.882;20.650;2023-02-18T02:00:58;74.80;;;51.38;;
59978;SDS011;45839;44.882;20.650;2023-02-18T02:03:24;80.47;;;52.70;;
59978;SDS011;45839;44.882;20.650;2023-02-18T02:05:50;73.78;;;51.85;;
59978;SDS011;45839;44.882;20.650;2023-02-18T02:08:16;79.32;;;51.88;;
59978;SDS011;45839;44.882;20.650;2023-02-18T02:13:18;71.90;;;47.65;;
59978;SDS011;45839;44.882;20.650;2023-02-18T02:15:50;69.80;;;44.63;;
59978;SDS011;45839;44.882;20.650;2023-02-18T02:18:25;72.22;;;47.40;;
59978;SDS011;45839;44.882;20.650;2023-02-18T02:28:59;45.30;;;32.03;;
59978;SDS011;45839;44.882;20.650;2023-02-18T02:33:58;44.97;;;29.58;;
59978;SDS011;45839;44.882;20.650;2023-02-18T02:45:02;58.63;;;40.88;;
59978;SDS011;45839;44.882;20.650;2023-02-18T02:47:21;68.55;;;45.33;;
59978;SDS011;45839;44.882;20.650;2023-02-18T02:52:40;65.88;;;43.45;;
59978;SDS011;45839;44.882;20.650;2023-02-18T02:55:09;59.30;;;39.90;;
59978;SDS011;45839;44.882;20.650;2023-02-18T03:00:03;60.85;;;43.10;;
59978;SDS011;45839;44.882;20.650;2023-02-18T03:15:28;62.90;;;42.50;;
59978;SDS011;45839;44.882;20.650;2023-02-18T03:18:01;64.50;;;44.90;;
59978;SDS011;45839;44.882;20.650;2023-02-18T03:20:36;68.15;;;44.60;;
59978;SDS011;45839;44.882;20.650;2023-02-18T03:23:06;64.55;;;43.25;;
59978;SDS011;45839;44.882;20.650;2023-02-18T03:25:32;60.13;;;42.10;;
59978;SDS011;45839;44.882;20.650;2023-02-18T03:28:11;59.47;;;42.38;;
59978;SDS011;45839;44.882;20.650;2023-02-18T03:30:45;57.47;;;41.50;;
59978;SDS011;45839;44.882;20.650;2023-02-18T03:33:13;59.90;;;42.30;;
59978;SDS011;45839;44.882;20.650;2023-02-18T03:35:39;58.13;;;40.15;;
59978;SDS011;45839;44.882;20.650;2023-02-18T03:40:36;60.53;;;43.25;;
59978;SDS011;45839;44.882;20.650;2023-02-18T03:43:02;62.15;;;43.45;;
59978;SDS011;45839;44.882;20.650;2023-02-18T03:45:28;66.97;;;45.42;;
59978;SDS011;45839;44.882;20.650;2023-02-18T03:47:54;61.40;;;42.55;;
59978;SDS011;45839;44.882;20.650;2023-02-18T03:50:20;54.50;;;39.63;;
59978;SDS011;45839;44.882;20.650;2023-02-18T03:52:47;54.55;;;37.65;;
59978;SDS011;45839;44.882;20.650;2023-02-18T03:55:13;54.60;;;38.50;;
59978;SDS011;45839;44.882;20.650;2023-02-18T03:57:39;51.03;;;35.65;;
59978;SDS011;45839;44.882;20.650;2023-02-18T04:00:05;53.28;;;35.78;;
59978;SDS011;45839;44.882;20.650;2023-02-18T04:02:32;52.42;;;36.58;;
59978;SDS011;45839;44.882;20.650;2023-02-18T04:04:58;49.58;;;35.67;;
59978;SDS011;45839;44.882;20.650;2023-02-18T04:07:24;48.63;;;35.35;;
59978;SDS011;45839;44.882;20.650;2023-02-18T04:09:50;48.58;;;34.75;;
59978;SDS011;45839;44.882;20.650;2023-02-18T04:12:16;48.17;;;34.47;;
59978;SDS011;45839;44.882;20.650;2023-02-18T04:14:42;50.78;;;37.08;;
59978;SDS011;45839;44.882;20.650;2023-02-18T04:17:09;50.50;;;35.97;;
59978;SDS011;45839;44.882;20.650;2023-02-18T04:19:35;48.42;;;35.20;;
59978;SDS011;45839;44.882;20.650;2023-02-18T04:22:01;43.63;;;30.10;;
59978;SDS011;45839;44.882;20.650;2023-02-18T04:24:27;35.75;;;25.00;;
59978;SDS011;45839;44.882;20.650;2023-02-18T04:26:53;33.08;;;22.13;;
59978;SDS011;45839;44.882;20.650;2023-02-18T04:29:19;38.60;;;26.27;;
59978;SDS011;45839;44.882;20.650;2023-02-18T04:31:45;26.00;;;17.75;;
59978;SDS011;45839;44.882;20.650;2023-02-18T04:34:11;23.77;;;16.05;;
59978;SDS011;45839;44.882;20.650;2023-02-18T04:36:37;26.95;;;17.67;;
59978;SDS011;45839;44.882;20.650;2023-02-18T04:39:03;33.78;;;21.63;;
59978;SDS011;45839;44.882;20.650;2023-02-18T04:41:30;39.50;;;26.67;;
59978;SDS011;45839;44.882;20.650;2023-02-18T04:43:56;36.20;;;25.92;;
59978;SDS011;45839;44.882;20.650;2023-02-18T04:46:23;29.90;;;18.48;;
59978;SDS011;45839;44.882;20.650;2023-02-18T04:48:49;25.60;;;17.33;;
59978;SDS011;45839;44.882;20.650;2023-02-18T04:51:15;22.15;;;14.80;;
59978;SDS011;45839;44.882;20.650;2023-02-18T04:53:41;22.33;;;14.52;;
59978;SDS011;45839;44.882;20.650;2023-02-18T04:56:07;21.38;;;12.40;;
59978;SDS011;45839;44.882;20.650;2023-02-18T04:58:33;21.17;;;13.00;;
59978;SDS011;45839;44.882;20.650;2023-02-18T05:01:00;18.65;;;11.48;;
59978;SDS011;45839;44.882;20.650;2023-02-18T05:03:26;21.08;;;14.10;;
59978;SDS011;45839;44.882;20.650;2023-02-18T05:05:53;20.15;;;13.35;;
59978;SDS011;45839;44.882;20.650;2023-02-18T05:08:19;22.25;;;14.18;;
59978;SDS011;45839;44.882;20.650;2023-02-18T05:10:45;17.48;;;10.40;;
59978;SDS011;45839;44.882;20.650;2023-02-18T05:13:11;15.77;;;9.95;;
59978;SDS011;45839;44.882;20.650;2023-02-18T05:15:37;16.15;;;10.15;;
59978;SDS011;45839;44.882;20.650;2023-02-18T05:18:03;16.00;;;9.85;;
59978;SDS011;45839;44.882;20.650;2023-02-18T05:20:29;18.98;;;9.95;;
59978;SDS011;45839;44.882;20.650;2023-02-18T05:22:55;16.17;;;9.65;;
59978;SDS011;45839;44.882;20.650;2023-02-18T05:25:21;14.93;;;9.55;;
59978;SDS011;45839;44.882;20.650;2023-02-18T05:27:47;15.02;;;10.15;;
59978;SDS011;45839;44.882;20.650;2023-02-18T05:30:13;18.88;;;9.38;;
59978;SDS011;45839;44.882;20.650;2023-02-18T05:32:39;17.00;;;10.57;;
59978;SDS011;45839;44.882;20.650;2023-02-18T05:35:06;16.20;;;10.57;;
59978;SDS011;45839;44.882;20.650;2023-02-18T05:37:32;19.63;;;10.85;;
59978;SDS011;45839;44.882;20.650;2023-02-18T05:39:58;21.30;;;10.63;;
59978;SDS011;45839;44.882;20.650;2023-02-18T05:42:24;17.90;;;11.10;;
59978;SDS011;45839;44.882;20.650;2023-02-18T05:44:50;18.88;;;11.15;;
59978;SDS011;45839;44.882;20.650;2023-02-18T05:47:16;18.27;;;11.07;;
59978;SDS011;45839;44.882;20.650;2023-02-18T05:49:42;19.38;;;11.35;;
59978;SDS011;45839;44.882;20.650;2023-02-18T05:52:08;19.95;;;11.27;;
59978;SDS011;45839;44.882;20.650;2023-02-18T05:54:35;17.98;;;10.95;;
59978;SDS011;45839;44.882;20.650;2023-02-18T05:57:02;18.02;;;11.25;;
59978;SDS011;45839;44.882;20.650;2023-02-18T05:59:28;19.10;;;10.88;;
59978;SDS011;45839;44.882;20.650;2023-02-18T06:01:54;18.95;;;11.95;;
59978;SDS011;45839;44.882;20.650;2023-02-18T06:04:21;22.88;;;11.98;;
59978;SDS011;45839;44.882;20.650;2023-02-18T06:06:47;18.33;;;11.30;;
59978;SDS011;45839;44.882;20.650;2023-02-18T06:09:13;16.83;;;11.25;;
59978;SDS011;45839;44.882;20.650;2023-02-18T06:11:39;18.50;;;12.02;;
59978;SDS011;45839;44.882;20.650;2023-02-18T06:14:05;20.85;;;11.98;;
59978;SDS011;45839;44.882;20.650;2023-02-18T06:16:31;17.88;;;11.23;;
59978;SDS011;45839;44.882;20.650;2023-02-18T06:18:57;18.23;;;11.10;;
59978;SDS011;45839;44.882;20.650;2023-02-18T06:21:24;16.10;;;10.63;;
59978;SDS011;45839;44.882;20.650;2023-02-18T06:23:50;16.40;;;10.00;;
59978;SDS011;45839;44.882;20.650;2023-02-18T06:26:16;16.85;;;10.80;;
59978;SDS011;45839;44.882;20.650;2023-02-18T06:28:42;19.48;;;10.63;;
59978;SDS011;45839;44.882;20.650;2023-02-18T06:31:08;16.05;;;9.93;;
59978;SDS011;45839;44.882;20.650;2023-02-18T06:33:34;16.30;;;10.13;;
59978;SDS011;45839;44.882;20.650;2023-02-18T06:36:04;17.10;;;9.70;;
59978;SDS011;45839;44.882;20.650;2023-02-18T06:38:31;19.15;;;9.82;;
59978;SDS011;45839;44.882;20.650;2023-02-18T06:40:58;14.48;;;9.45;;
59978;SDS011;45839;44.882;20.650;2023-02-18T06:43:24;16.80;;;10.02;;
59978;SDS011;45839;44.882;20.650;2023-02-18T06:45:50;13.77;;;9.30;;
59978;SDS011;45839;44.882;20.650;2023-02-18T06:48:16;13.82;;;8.85;;
59978;SDS011;45839;44.882;20.650;2023-02-18T06:50:42;16.38;;;10.05;;
59978;SDS011;45839;44.882;20.650;2023-02-18T06:53:09;16.63;;;8.90;;
59978;SDS011;45839;44.882;20.650;2023-02-18T06:55:35;15.85;;;9.60;;
59978;SDS011;45839;44.882;20.650;2023-02-18T06:58:01;16.10;;;9.50;;
59978;SDS011;45839;44.882;20.650;2023-02-18T07:00:27;14.95;;;9.07;;
59978;SDS011;45839;44.882;20.650;2023-02-18T07:02:53;15.75;;;8.98;;
59978;SDS011;45839;44.882;20.650;2023-02-18T07:05:19;13.13;;;8.10;;
59978;SDS011;45839;44.882;20.650;2023-02-18T07:07:45;13.60;;;8.40;;
59978;SDS011;45839;44.882;20.650;2023-02-18T07:10:11;13.55;;;8.43;;
59978;SDS011;45839;44.882;20.650;2023-02-18T07:12:37;13.60;;;8.35;;
59978;SDS011;45839;44.882;20.650;2023-02-18T07:15:04;12.82;;;8.15;;
59978;SDS011;45839;44.882;20.650;2023-02-18T07:17:30;12.23;;;7.88;;
59978;SDS011;45839;44.882;20.650;2023-02-18T07:19:56;13.30;;;8.32;;
59978;SDS011;45839;44.882;20.650;2023-02-18T07:22:22;16.30;;;8.75;;
59978;SDS011;45839;44.882;20.650;2023-02-18T07:24:51;12.35;;;8.10;;
59978;SDS011;45839;44.882;20.650;2023-02-18T07:27:18;13.90;;;8.07;;
59978;SDS011;45839;44.882;20.650;2023-02-18T07:29:44;13.57;;;8.45;;
59978;SDS011;45839;44.882;20.650;2023-02-18T07:32:11;14.68;;;7.97;;
59978;SDS011;45839;44.882;20.650;2023-02-18T07:34:37;14.70;;;8.85;;
59978;SDS011;45839;44.882;20.650;2023-02-18T07:37:03;16.25;;;8.13;;
59978;SDS011;45839;44.882;20.650;2023-02-18T07:39:33;13.52;;;8.02;;
59978;SDS011;45839;44.882;20.650;2023-02-18T07:41:59;17.15;;;9.07;;
59978;SDS011;45839;44.882;20.650;2023-02-18T07:44:26;15.00;;;8.50;;
59978;SDS011;45839;44.882;20.650;2023-02-18T07:46:52;16.70;;;9.00;;
59978;SDS011;45839;44.882;20.650;2023-02-18T07:49:18;16.23;;;9.30;;
59978;SDS011;45839;44.882;20.650;2023-02-18T07:51:48;16.30;;;9.77;;
59978;SDS011;45839;44.882;20.650;2023-02-18T07:54:14;16.08;;;9.65;;
59978;SDS011;45839;44.882;20.650;2023-02-18T07:56:40;15.45;;;9.38;;
59978;SDS011;45839;44.882;20.650;2023-02-18T07:59:07;15.80;;;8.93;;
59978;SDS011;45839;44.882;20.650;2023-02-18T08:01:33;15.07;;;9.63;;
59978;SDS011;45839;44.882;20.650;2023-02-18T08:03:59;15.48;;;9.73;;
59978;SDS011;45839;44.882;20.650;2023-02-18T08:06:35;16.38;;;10.40;;
59978;SDS011;45839;44.882;20.650;2023-02-18T08:09:02;15.40;;;9.40;;
59978;SDS011;45839;44.882;20.650;2023-02-18T08:11:28;18.52;;;9.95;;
59978;SDS011;45839;44.882;20.650;2023-02-18T08:13:54;18.63;;;11.32;;
59978;SDS011;45839;44.882;20.650;2023-02-18T08:16:21;17.30;;;9.88;;
59978;SDS011;45839;44.882;20.650;2023-02-18T08:18:48;16.42;;;10.15;;
59978;SDS011;45839;44.882;20.650;2023-02-18T08:21:14;16.38;;;10.35;;
59978;SDS011;45839;44.882;20.650;2023-02-18T08:23:40;16.80;;;10.20;;
59978;SDS011;45839;44.882;20.650;2023-02-18T08:26:07;16.98;;;10.10;;
59978;SDS011;45839;44.882;20.650;2023-02-18T08:28:33;15.63;;;10.25;;
59978;SDS011;45839;44.882;20.650;2023-02-18T08:30:59;13.70;;;9.30;;
59978;SDS011;45839;44.882;20.650;2023-02-18T08:33:25;14.52;;;9.38;;
59978;SDS011;45839;44.882;20.650;2023-02-18T08:35:52;18.25;;;12.35;;
59978;SDS011;45839;44.882;20.650;2023-02-18T08:38:19;14.90;;;9.60;;
59978;SDS011;45839;44.882;20.650;2023-02-18T08:40:45;16.13;;;9.32;;
59978;SDS011;45839;44.882;20.650;2023-02-18T08:43:12;16.55;;;11.00;;
59978;SDS011;45839;44.882;20.650;2023-02-18T08:45:38;19.20;;;11.32;;
59978;SDS011;45839;44.882;20.650;2023-02-18T08:48:05;17.92;;;11.07;;
59978;SDS011;45839;44.882;20.650;2023-02-18T08:50:32;16.10;;;11.23;;
59978;SDS011;45839;44.882;20.650;2023-02-18T08:52:59;19.00;;;11.98;;
59978;SDS011;45839;44.882;20.650;2023-02-18T08:55:27;16.98;;;11.35;;
59978;SDS011;45839;44.882;20.650;2023-02-18T08:57:53;16.48;;;11.48;;
59978;SDS011;45839;44.882;20.650;2023-02-18T09:00:19;18.15;;;10.82;;
59978;SDS011;45839;44.882;20.650;2023-02-18T09:02:45;19.05;;;11.88;;
59978;SDS011;45839;44.882;20.650;2023-02-18T09:05:12;29.83;;;15.63;;
59978;SDS011;45839;44.882;20.650;2023-02-18T09:07:38;18.02;;;12.18;;
59978;SDS011;45839;44.882;20.650;2023-02-18T09:10:04;22.90;;;13.40;;
59978;SDS011;45839;44.882;20.650;2023-02-18T09:12:31;19.75;;;12.70;;
59978;SDS011;45839;44.882;20.650;2023-02-18T09:14:57;23.38;;;14.50;;
59978;SDS011;45839;44.882;20.650;2023-02-18T09:17:24;20.25;;;14.00;;
59978;SDS011;45839;44.882;20.650;2023-02-18T09:19:50;23.15;;;13.00;;
59978;SDS011;45839;44.882;20.650;2023-02-18T09:22:17;21.85;;;13.80;;
59978;SDS011;45839;44.882;20.650;2023-02-18T09:24:43;22.45;;;13.80;;
59978;SDS011;45839;44.882;20.650;2023-02-18T09:27:09;24.48;;;14.15;;
59978;SDS011;45839;44.882;20.650;2023-02-18T09:29:39;21.55;;;14.60;;
59978;SDS011;45839;44.882;20.650;2023-02-18T09:32:06;22.00;;;14.13;;
59978;SDS011;45839;44.882;20.650;2023-02-18T09:34:32;20.48;;;13.57;;
59978;SDS011;45839;44.882;20.650;2023-02-18T09:36:58;20.55;;;13.90;;
59978;SDS011;45839;44.882;20.650;2023-02-18T09:39:24;19.10;;;13.65;;
59978;SDS011;45839;44.882;20.650;2023-02-18T09:41:51;20.80;;;13.30;;
59978;SDS011;45839;44.882;20.650;2023-02-18T09:44:20;23.42;;;13.98;;
59978;SDS011;45839;44.882;20.650;2023-02-18T09:49:22;20.95;;;13.65;;
59978;SDS011;45839;44.882;20.650;2023-02-18T09:51:50;19.92;;;12.25;;
59978;SDS011;45839;44.882;20.650;2023-02-18T09:54:17;18.25;;;11.90;;
59978;SDS011;45839;44.882;20.650;2023-02-18T09:56:44;16.05;;;11.38;;
59978;SDS011;45839;44.882;20.650;2023-02-18T09:59:15;18.85;;;11.65;;
59978;SDS011;45839;44.882;20.650;2023-02-18T10:01:43;16.70;;;11.48;;
59978;SDS011;45839;44.882;20.650;2023-02-18T10:04:14;56.33;;;27.83;;
59978;SDS011;45839;44.882;20.650;2023-02-18T10:06:42;24.58;;;14.50;;
59978;SDS011;45839;44.882;20.650;2023-02-18T10:09:19;20.35;;;12.75;;
59978;SDS011;45839;44.882;20.650;2023-02-18T10:11:56;17.17;;;10.70;;
59978;SDS011;45839;44.882;20.650;2023-02-18T10:14:22;18.10;;;11.70;;
59978;SDS011;45839;44.882;20.650;2023-02-18T10:16:49;17.75;;;11.27;;
59978;SDS011;45839;44.882;20.650;2023-02-18T10:21:42;18.83;;;12.55;;
59978;SDS011;45839;44.882;20.650;2023-02-18T10:24:26;16.95;;;11.63;;
59978;SDS011;45839;44.882;20.650;2023-02-18T10:26:54;18.58;;;11.57;;
59978;SDS011;45839;44.882;20.650;2023-02-18T10:29:20;61.10;;;45.53;;
59978;SDS011;45839;44.882;20.650;2023-02-18T10:34:47;556.45;;;330.08;;
59978;SDS011;45839;44.882;20.650;2023-02-18T10:39:47;341.02;;;246.30;;
59978;SDS011;45839;44.882;20.650;2023-02-18T10:47:21;20.60;;;11.77;;
59978;SDS011;45839;44.882;20.650;2023-02-18T10:52:20;17.77;;;10.98;;
59978;SDS011;45839;44.882;20.650;2023-02-18T10:54:49;16.05;;;10.60;;
59978;SDS011;45839;44.882;20.650;2023-02-18T10:57:20;19.20;;;10.57;;
59978;SDS011;45839;44.882;20.650;2023-02-18T11:00:20;17.42;;;11.35;;
59978;SDS011;45839;44.882;20.650;2023-02-18T11:02:39;18.95;;;11.80;;
59978;SDS011;45839;44.882;20.650;2023-02-18T11:05:20;19.00;;;12.00;;
59978;SDS011;45839;44.882;20.650;2023-02-18T11:07:49;18.67;;;12.07;;
59978;SDS011;45839;44.882;20.650;2023-02-18T11:10:17;20.70;;;13.32;;
59978;SDS011;45839;44.882;20.650;2023-02-18T11:12:44;21.48;;;11.52;;
59978;SDS011;45839;44.882;20.650;2023-02-18T11:15:17;18.92;;;12.27;;
59978;SDS011;45839;44.882;20.650;2023-02-18T11:17:44;19.17;;;12.07;;
59978;SDS011;45839;44.882;20.650;2023-02-18T11:20:22;19.15;;;12.43;;
59978;SDS011;45839;44.882;20.650;2023-02-18T11:22:48;17.77;;;11.52;;
59978;SDS011;45839;44.882;20.650;2023-02-18T11:25:22;17.33;;;11.35;;
59978;SDS011;45839;44.882;20.650;2023-02-18T11:27:53;18.08;;;11.70;;
59978;SDS011;45839;44.882;20.650;2023-02-18T11:32:47;16.25;;;11.18;;
59978;SDS011;45839;44.882;20.650;2023-02-18T11:35:21;19.88;;;11.45;;
59978;SDS011;45839;44.882;20.650;2023-02-18T11:37:48;21.27;;;12.57;;
59978;SDS011;45839;44.882;20.650;2023-02-18T11:40:24;21.58;;;12.15;;
59978;SDS011;45839;44.882;20.650;2023-02-18T11:43:01;15.13;;;10.95;;
59978;SDS011;45839;44.882;20.650;2023-02-18T11:45:28;38.97;;;28.17;;
59978;SDS011;45839;44.882;20.650;2023-02-18T11:48:16;18.10;;;11.95;;
59978;SDS011;45839;44.882;20.650;2023-02-18T11:50:41;17.27;;;11.43;;
59978;SDS011;45839;44.882;20.650;2023-02-18T11:56:04;17.00;;;11.00;;
59978;SDS011;45839;44.882;20.650;2023-02-18T11:58:35;18.83;;;11.88;;
59978;SDS011;45839;44.882;20.650;2023-02-18T12:01:02;16.33;;;10.98;;
59978;SDS011;45839;44.882;20.650;2023-02-18T12:05:56;16.92;;;11.88;;
59978;SDS011;45839;44.882;20.650;2023-02-18T12:08:26;16.55;;;11.20;;
59978;SDS011;45839;44.882;20.650;2023-02-18T12:10:53;16.60;;;11.35;;
59978;SDS011;45839;44.882;20.650;2023-02-18T12:13:29;16.52;;;11.10;;
59978;SDS011;45839;44.882;20.650;2023-02-18T12:24:02;168.93;;;113.38;;
59978;SDS011;45839;44.882;20.650;2023-02-18T12:26:38;80.60;;;52.85;;
59978;SDS011;45839;44.882;20.650;2023-02-18T12:32:04;90.78;;;59.63;;
59978;SDS011;45839;44.882;20.650;2023-02-18T12:42:21;19.17;;;11.20;;
59978;SDS011;45839;44.882;20.650;2023-02-18T12:45:07;18.33;;;12.90;;
59978;SDS011;45839;44.882;20.650;2023-02-18T13:00:41;19.60;;;12.32;;
59978;SDS011;45839;44.882;20.650;2023-02-18T13:03:19;19.17;;;12.45;;
59978;SDS011;45839;44.882;20.650;2023-02-18T13:10:44;16.13;;;11.82;;
59978;SDS011;45839;44.882;20.650;2023-02-18T13:13:18;17.08;;;11.82;;
59978;SDS011;45839;44.882;20.650;2023-02-18T13:15:49;20.48;;;13.02;;
59978;SDS011;45839;44.882;20.650;2023-02-18T13:21:06;19.20;;;12.82;;
59978;SDS011;45839;44.882;20.650;2023-02-18T13:23:38;20.67;;;11.55;;
59978;SDS011;45839;44.882;20.650;2023-02-18T13:26:05;18.60;;;11.63;;
59978;SDS011;45839;44.882;20.650;2023-02-18T13:39:03;16.67;;;11.70;;
59978;SDS011;45839;44.882;20.650;2023-02-18T13:41:38;18.50;;;10.93;;
59978;SDS011;45839;44.882;20.650;2023-02-18T13:44:08;18.88;;;11.65;;
59978;SDS011;45839;44.882;20.650;2023-02-18T13:46:54;18.20;;;11.45;;
59978;SDS011;45839;44.882;20.650;2023-02-18T13:49:22;19.25;;;13.07;;
59978;SDS011;45839;44.882;20.650;2023-02-18T13:51:49;17.67;;;12.85;;
59978;SDS011;45839;44.882;20.650;2023-02-18T13:54:28;20.23;;;11.80;;
59978;SDS011;45839;44.882;20.650;2023-02-18T13:59:25;19.35;;;12.48;;
59978;SDS011;45839;44.882;20.650;2023-02-18T14:01:53;18.30;;;12.55;;
59978;SDS011;45839;44.882;20.650;2023-02-18T14:09:44;17.52;;;12.75;;
59978;SDS011;45839;44.882;20.650;2023-02-18T14:14:55;18.05;;;12.93;;
59978;SDS011;45839;44.882;20.650;2023-02-18T14:17:28;18.20;;;13.05;;
59978;SDS011;45839;44.882;20.650;2023-02-18T14:20:21;21.10;;;12.57;;
59978;SDS011;45839;44.882;20.650;2023-02-18T14:22:49;17.98;;;13.02;;
59978;SDS011;45839;44.882;20.650;2023-02-18T14:25:21;18.42;;;13.27;;
59978;SDS011;45839;44.882;20.650;2023-02-18T14:27:50;16.90;;;12.60;;
59978;SDS011;45839;44.882;20.650;2023-02-18T14:32:43;21.42;;;13.55;;
59978;SDS011;45839;44.882;20.650;2023-02-18T14:37:56;19.40;;;12.40;;
59978;SDS011;45839;44.882;20.650;2023-02-18T14:45:32;23.17;;;15.02;;
59978;SDS011;45839;44.882;20.650;2023-02-18T14:50:29;20.08;;;12.88;;
59978;SDS011;45839;44.882;20.650;2023-02-18T14:52:56;20.08;;;13.40;;
59978;SDS011;45839;44.882;20.650;2023-02-18T14:55:58;23.15;;;13.38;;
59978;SDS011;45839;44.882;20.650;2023-02-18T15:00:45;17.30;;;11.95;;
59978;SDS011;45839;44.882;20.650;2023-02-18T15:03:15;19.02;;;12.63;;
59978;SDS011;45839;44.882;20.650;2023-02-18T15:05:43;18.48;;;11.57;;
59978;SDS011;45839;44.882;20.650;2023-02-18T15:08:19;16.52;;;11.60;;
59978;SDS011;45839;44.882;20.650;2023-02-18T15:13:19;17.52;;;11.95;;
59978;SDS011;45839;44.882;20.650;2023-02-18T15:15:51;18.88;;;11.77;;
59978;SDS011;45839;44.882;20.650;2023-02-18T15:18:39;16.67;;;12.13;;
59978;SDS011;45839;44.882;20.650;2023-02-18T15:21:05;22.10;;;13.02;;
59978;SDS011;45839;44.882;20.650;2023-02-18T15:23:36;18.33;;;12.30;;
59978;SDS011;45839;44.882;20.650;2023-02-18T15:26:03;20.17;;;12.93;;
59978;SDS011;45839;44.882;20.650;2023-02-18T15:28:30;22.45;;;14.30;;
59978;SDS011;45839;44.882;20.650;2023-02-18T15:31:00;19.90;;;13.50;;
59978;SDS011;45839;44.882;20.650;2023-02-18T15:33:27;18.27;;;13.32;;
59978;SDS011;45839;44.882;20.650;2023-02-18T15:36:26;21.70;;;15.02;;
59978;SDS011;45839;44.882;20.650;2023-02-18T15:38:45;24.08;;;14.48;;
59978;SDS011;45839;44.882;20.650;2023-02-18T15:41:16;26.02;;;17.85;;
59978;SDS011;45839;44.882;20.650;2023-02-18T15:44:18;23.50;;;15.52;;
59978;SDS011;45839;44.882;20.650;2023-02-18T15:46:36;23.98;;;17.30;;
59978;SDS011;45839;44.882;20.650;2023-02-18T15:49:02;23.70;;;15.85;;
59978;SDS011;45839;44.882;20.650;2023-02-18T15:51:31;26.00;;;17.75;;
59978;SDS011;45839;44.882;20.650;2023-02-18T15:53:58;24.40;;;16.45;;
59978;SDS011;45839;44.882;20.650;2023-02-18T15:58:55;30.20;;;19.15;;
59978;SDS011;45839;44.882;20.650;2023-02-18T16:01:27;26.80;;;17.90;;
59978;SDS011;45839;44.882;20.650;2023-02-18T16:03:54;26.02;;;17.30;;
59978;SDS011;45839;44.882;20.650;2023-02-18T16:06:25;25.42;;;18.10;;
59978;SDS011;45839;44.882;20.650;2023-02-18T16:09:01;25.08;;;18.35;;
59978;SDS011;45839;44.882;20.650;2023-02-18T16:11:30;28.60;;;18.38;;
59978;SDS011;45839;44.882;20.650;2023-02-18T16:13:57;25.50;;;17.50;;
59978;SDS011;45839;44.882;20.650;2023-02-18T16:16:35;24.67;;;16.70;;
59978;SDS011;45839;44.882;20.650;2023-02-18T16:19:03;23.70;;;16.38;;
59978;SDS011;45839;44.882;20.650;2023-02-18T16:21:30;26.42;;;17.83;;
59978;SDS011;45839;44.882;20.650;2023-02-18T16:23:59;27.27;;;18.45;;
59978;SDS011;45839;44.882;20.650;2023-02-18T16:28:52;27.63;;;18.23;;
59978;SDS011;45839;44.882;20.650;2023-02-18T16:31:19;31.42;;;21.45;;
59978;SDS011;45839;44.882;20.650;2023-02-18T16:33:46;32.97;;;22.15;;
59978;SDS011;45839;44.882;20.650;2023-02-18T16:36:13;31.45;;;20.70;;
59978;SDS011;45839;44.882;20.650;2023-02-18T16:38:40;31.67;;;21.75;;
59978;SDS011;45839;44.882;20.650;2023-02-18T16:41:07;29.88;;;20.70;;
59978;SDS011;45839;44.882;20.650;2023-02-18T16:43:34;41.55;;;27.30;;
59978;SDS011;45839;44.882;20.650;2023-02-18T16:46:14;39.92;;;26.45;;
59978;SDS011;45839;44.882;20.650;2023-02-18T16:48:41;48.67;;;33.58;;
59978;SDS011;45839;44.882;20.650;2023-02-18T16:51:19;50.22;;;35.00;;
59978;SDS011;45839;44.882;20.650;2023-02-18T16:53:46;50.78;;;34.47;;
59978;SDS011;45839;44.882;20.650;2023-02-18T16:56:16;44.97;;;30.80;;
59978;SDS011;45839;44.882;20.650;2023-02-18T16:58:42;45.92;;;29.63;;